Time;durP1;ratioP1;P1;durP2;ratioP2;P2;SDS_P1;SDS_P2;PMS_P1;PMS_P2;Temp;Humidity;BMP_temperature;BMP_pressure;BME280_temperature;BME280_humidity;BME280_pressure;Samples;Min_cycle;Max_cycle;Signal;HPM_P1;HPM_P2
2023/05/19 04:43:32;;;;;;;7.18;2.22;;;;;;;8.15;77.67;97033.38;2081630;28;20564;-53
2023/05/19 04:44:33;;;;;;;10.25;3.00;;;;;;;8.14;77.22;97016.94;2078675;28;20205;-55
2023/05/19 06:16:56;;;;;;;9.00;2.92;;;;;;;11.31;67.78;97031.16;2083932;28;20558;-55
2023/05/19 06:19:09;;;;;;;11.88;2.80;;;;;;;11.52;66.63;97024.19;2085337;28;20582;-55
2023/05/19 06:21:22;;;;;;;6.80;2.60;;;;;;;11.64;66.65;97024.56;2090640;28;20544;-55
2023/05/19 06:23:35;;;;;;;8.20;2.50;;;;;;;11.73;65.97;97024.16;2086655;27;21065;-55
2023/05/19 06:25:48;;;;;;;10.60;2.67;;;;;;;11.97;66.50;97032.75;2084555;28;20556;-55
2023/05/19 06:28:03;;;;;;;15.57;3.08;;;;;;;12.07;65.62;97030.56;2090984;27;20570;-55
2023/05/19 06:30:22;;;;;;;8.02;3.55;;;;;;;11.94;67.76;96990.97;2100641;27;20577;-55
2023/05/19 06:32:41;;;;;;;7.28;2.78;;;;;;;12.65;66.34;97036.72;2083232;28;20565;-55
2023/05/19 06:35:00;;;;;;;6.43;2.90;;;;;;;12.76;65.65;97026.56;2098981;27;20529;-55
2023/05/19 06:37:22;;;;;;;5.50;2.50;;;;;;;12.81;65.98;97027.19;2081238;28;20565;-55
2023/05/19 06:38:24;;;;;;;12.43;3.20;;;;;;;12.87;64.56;97018.19;2077064;28;20225;-55
2023/05/19 06:40:33;;;;;;;8.85;2.42;;;;;;;12.49;65.57;97036.56;2084942;28;20570;-55
2023/05/19 06:41:35;;;;;;;7.75;2.80;;;;;;;12.78;64.93;97032.56;2077047;28;20219;-56
2023/05/19 06:42:36;;;;;;;12.95;3.20;;;;;;;12.98;64.17;97029.00;2081297;28;20715;-56
2023/05/19 06:43:37;;;;;;;9.35;2.97;;;;;;;13.16;63.69;97035.13;2073158;28;20251;-56
2023/05/19 06:45:44;;;;;;;9.10;3.45;;;;;;;13.26;62.90;97034.69;2099496;27;20961;-55
2023/05/19 06:46:46;;;;;;;10.15;2.67;;;;;;;13.13;63.15;97023.94;2098658;28;20200;-55
2023/05/19 06:47:48;;;;;;;7.70;2.95;;;;;;;12.96;63.74;97030.00;2097454;28;20192;-56
2023/05/19 06:48:50;;;;;;;12.93;3.60;;;;;;;13.09;64.00;97033.75;2082631;28;20247;-57
2023/05/19 06:49:55;;;;;;;10.48;3.47;;;;;;;13.35;64.51;97034.22;2089190;28;20569;-57
2023/05/19 06:50:56;;;;;;;10.40;3.28;;;;;;;13.30;63.22;97031.81;2089763;28;20854;-57
2023/05/19 06:51:57;;;;;;;11.90;2.60;;;;;;;13.47;63.26;97036.28;2090068;28;20283;-57
2023/05/19 06:52:59;;;;;;;8.43;3.50;;;;;;;13.57;63.23;97038.44;2089695;28;20636;-58
2023/05/19 06:54:01;;;;;;;12.80;3.40;;;;;;;13.53;63.05;97033.34;2090714;28;20655;-58
2023/05/19 06:55:03;;;;;;;16.30;3.13;;;;;;;13.79;61.90;97038.16;2092318;28;20196;-58
2023/05/19 06:56:05;;;;;;;8.50;3.10;;;;;;;13.84;62.23;97036.16;2091463;28;20195;-58
2023/05/19 06:57:06;;;;;;;8.57;2.92;;;;;;;13.63;63.05;97032.88;2089941;28;20291;-57
2023/05/19 06:59:13;;;;;;;9.95;2.90;;;;;;;13.59;63.53;97037.41;2099059;27;20550;-56
2023/05/19 07:00:15;;;;;;;6.68;2.97;;;;;;;13.47;63.18;97038.03;2098494;28;20658;-55
2023/05/19 07:02:38;;;;;;;7.55;2.72;;;;;;;12.95;63.98;97036.16;2086421;28;21103;-55
2023/05/19 07:03:40;;;;;;;10.55;3.10;;;;;;;13.06;64.41;97039.13;2077076;28;20224;-57
2023/05/19 07:04:41;;;;;;;8.40;3.42;;;;;;;13.13;64.11;97027.41;2071278;28;20225;-57
2023/05/19 07:06:49;;;;;;;7.82;2.78;;;;;;;13.34;63.59;97043.00;2083774;28;20577;-55
2023/05/19 07:07:50;;;;;;;13.60;3.00;;;;;;;13.35;63.69;97039.47;2077355;28;20594;-55
2023/05/19 07:08:52;;;;;;;13.25;3.47;;;;;;;13.33;63.25;97030.81;2075675;28;20571;-56
2023/05/19 07:09:53;;;;;;;17.55;4.70;;;;;;;13.44;62.99;97031.16;2077471;28;20196;-55
2023/05/19 07:10:55;;;;;;;8.45;2.97;;;;;;;13.52;62.81;97042.13;2079797;28;20208;-56
2023/05/19 07:11:56;;;;;;;7.25;2.50;;;;;;;13.39;63.44;97043.66;2080178;28;20196;-55
2023/05/19 07:12:58;;;;;;;16.38;3.08;;;;;;;13.41;63.32;97033.97;2082248;28;20200;-55
2023/05/19 07:14:00;;;;;;;11.85;3.10;;;;;;;13.50;63.05;97035.28;2076809;28;20254;-56
2023/05/19 07:15:02;;;;;;;15.18;3.22;;;;;;;13.60;62.74;97036.50;2076719;28;20231;-56
2023/05/19 07:16:04;;;;;;;10.10;3.05;;;;;;;13.63;62.28;97036.31;2077112;28;20299;-55
2023/05/19 07:17:05;;;;;;;16.80;2.97;;;;;;;13.82;62.63;97033.63;2076867;28;20198;-56
2023/05/19 07:18:07;;;;;;;9.52;3.70;;;;;;;13.91;62.29;97039.31;2077451;28;20202;-55
2023/05/19 07:19:08;;;;;;;14.95;3.33;;;;;;;13.98;62.31;97038.06;2076442;28;20194;-55
2023/05/19 07:20:10;;;;;;;8.88;2.80;;;;;;;14.17;61.38;97033.56;2079491;28;20196;-56
2023/05/19 07:21:12;;;;;;;6.63;2.92;;;;;;;14.12;61.67;97029.47;2080016;28;20200;-56
2023/05/19 07:22:13;;;;;;;10.70;3.20;;;;;;;14.25;62.45;97035.78;2079551;28;20196;-55
2023/05/19 07:23:15;;;;;;;6.30;2.70;;;;;;;14.48;61.80;97029.28;2077731;28;20599;-56
2023/05/19 07:24:20;;;;;;;13.55;3.85;;;;;;;14.47;61.90;97027.56;2077229;28;20205;-56
2023/05/19 07:25:21;;;;;;;18.05;2.97;;;;;;;14.51;61.35;97029.13;2078880;28;20197;-55
2023/05/19 07:26:23;;;;;;;9.98;3.10;;;;;;;14.57;61.98;97020.03;2076639;28;20201;-56
2023/05/19 07:27:24;;;;;;;11.77;3.08;;;;;;;14.54;61.51;97026.31;2075979;28;20668;-55
2023/05/19 07:28:26;;;;;;;9.43;3.20;;;;;;;14.82;60.55;97026.63;2077871;28;20227;-55
2023/05/19 07:29:27;;;;;;;11.20;3.75;;;;;;;14.60;60.68;97027.78;2079819;28;20825;-55
2023/05/19 07:30:29;;;;;;;11.90;3.22;;;;;;;14.87;61.21;97032.47;2080582;28;20320;-56
2023/05/19 07:31:31;;;;;;;15.10;3.95;;;;;;;14.99;60.27;97031.75;2078005;28;20280;-56
2023/05/19 07:32:33;;;;;;;9.43;3.50;;;;;;;14.81;59.05;97031.00;2089564;28;20639;-57
2023/05/19 07:33:35;;;;;;;12.07;3.88;;;;;;;14.48;59.61;97016.13;2083744;28;20217;-57
2023/05/19 07:34:36;;;;;;;15.35;4.38;;;;;;;14.65;59.34;97017.88;2078348;28;20832;-58
2023/05/19 07:35:38;;;;;;;13.82;3.90;;;;;;;14.35;59.57;97033.50;2075450;28;20202;-58
2023/05/19 07:36:40;;;;;;;6.95;2.55;;;;;;;14.45;60.20;97025.97;2080204;28;20197;-57
2023/05/19 07:37:42;;;;;;;10.45;3.00;;;;;;;14.71;59.82;97024.56;2078773;28;20552;-58
2023/05/19 07:38:45;;;;;;;11.52;3.58;;;;;;;14.84;60.03;97019.47;2076321;28;20368;-58
2023/05/19 07:39:47;;;;;;;12.50;3.28;;;;;;;14.98;60.65;97030.09;2082181;28;20228;-57
2023/05/19 07:40:48;;;;;;;14.60;3.42;;;;;;;14.96;60.61;97020.59;2079426;28;20198;-57
2023/05/19 07:41:54;;;;;;;14.30;4.03;;;;;;;14.93;60.49;97021.59;2076258;28;20194;-58
2023/05/19 07:42:55;;;;;;;13.07;3.15;;;;;;;14.73;60.27;97022.72;2075449;28;20209;-58
2023/05/19 07:43:57;;;;;;;11.30;3.55;;;;;;;14.71;60.68;97026.38;2074844;28;20232;-57
2023/05/19 07:44:58;;;;;;;5.97;3.38;;;;;;;14.59;61.27;97023.44;2080472;28;20265;-57
2023/05/19 07:46:00;;;;;;;14.55;4.18;;;;;;;14.62;61.05;97025.06;2078355;28;20288;-57
2023/05/19 07:47:02;;;;;;;8.30;3.35;;;;;;;14.54;61.30;97025.47;2074844;28;20708;-57
2023/05/19 07:48:03;;;;;;;14.30;3.70;;;;;;;14.46;61.06;97019.78;2077943;28;20212;-58
2023/05/19 07:49:05;;;;;;;17.92;3.55;;;;;;;14.52;60.71;97025.56;2079869;28;20667;-58
2023/05/19 07:50:07;;;;;;;16.13;3.70;;;;;;;14.46;60.15;97025.91;2077036;28;20268;-58
2023/05/19 07:51:10;;;;;;;14.02;3.97;;;;;;;14.36;60.44;97019.44;2076949;28;20194;-57
2023/05/19 07:52:11;;;;;;;10.70;3.78;;;;;;;14.47;60.92;97027.56;2077773;28;20224;-58
2023/05/19 07:53:14;;;;;;;8.23;3.40;;;;;;;14.48;60.79;97026.66;2080259;28;20193;-57
2023/05/19 07:54:15;;;;;;;17.00;3.38;;;;;;;14.32;60.84;97024.00;2079283;28;20194;-58
2023/05/19 07:55:18;;;;;;;10.18;3.17;;;;;;;14.30;61.55;97017.16;2077780;28;20194;-58
2023/05/19 07:56:20;;;;;;;12.25;3.70;;;;;;;14.17;61.42;97024.81;2076919;28;20615;-58
2023/05/19 07:57:21;;;;;;;16.58;3.83;;;;;;;14.32;61.10;97010.00;2076080;28;20200;-57
2023/05/19 07:58:23;;;;;;;15.98;4.38;;;;;;;14.43;60.86;97020.78;2075357;28;20670;-58
2023/05/19 07:59:24;;;;;;;8.18;3.25;;;;;;;14.35;61.16;97030.88;2077662;28;20211;-58
2023/05/19 08:00:26;;;;;;;13.27;3.20;;;;;;;14.38;60.86;97017.56;2075230;28;20204;-58
2023/05/19 08:01:28;;;;;;;14.93;3.70;;;;;;;14.28;60.95;97013.75;2076462;28;20197;-57
2023/05/19 08:02:30;;;;;;;12.65;4.53;;;;;;;14.19;61.49;97021.19;2077978;28;20197;-57
2023/05/19 08:03:32;;;;;;;11.13;2.88;;;;;;;14.17;61.11;97015.19;2076692;28;20771;-57
2023/05/19 08:04:34;;;;;;;10.05;3.10;;;;;;;14.20;61.78;97017.63;2076222;28;20201;-58
2023/05/19 08:05:36;;;;;;;12.93;3.03;;;;;;;13.70;61.71;97015.91;2073971;28;20208;-57
2023/05/19 08:06:38;;;;;;;17.67;4.22;;;;;;;13.46;63.21;97015.34;2073551;28;20277;-58
2023/05/19 08:07:39;;;;;;;11.07;3.20;;;;;;;13.81;62.08;96999.56;2079270;28;20776;-57
2023/05/19 08:08:41;;;;;;;10.40;3.40;;;;;;;14.03;61.92;97007.19;2076844;28;20291;-57
2023/05/19 08:09:43;;;;;;;12.70;3.10;;;;;;;14.06;61.93;97017.53;2075535;28;20209;-58
2023/05/19 08:10:45;;;;;;;10.82;3.17;;;;;;;14.10;61.41;97002.47;2079146;28;20197;-57
2023/05/19 08:11:46;;;;;;;10.20;4.15;;;;;;;14.26;61.65;97015.59;2083057;28;20202;-57
2023/05/19 08:12:48;;;;;;;12.25;3.70;;;;;;;14.15;61.52;97018.81;2081880;28;20200;-57
2023/05/19 08:13:49;;;;;;;11.35;3.70;;;;;;;14.00;61.91;96997.66;2082756;28;20719;-57
2023/05/19 08:14:51;;;;;;;12.77;3.95;;;;;;;14.02;61.38;97008.13;2082615;28;20202;-57
2023/05/19 08:15:58;;;;;;;13.35;3.80;;;;;;;14.12;61.50;97014.56;2081684;28;20234;-57
2023/05/19 08:16:59;;;;;;;16.83;3.40;;;;;;;14.01;61.24;97009.03;2082409;28;20205;-57
2023/05/19 08:18:02;;;;;;;10.40;3.42;;;;;;;14.09;60.53;97009.47;2075298;28;20252;-57
2023/05/19 08:19:05;;;;;;;12.30;3.45;;;;;;;13.83;60.76;97005.59;2072914;28;20218;-57
2023/05/19 08:20:08;;;;;;;14.63;3.50;;;;;;;12.84;63.89;97018.34;2073828;28;20200;-57
2023/05/19 08:21:10;;;;;;;19.10;4.38;;;;;;;13.28;63.66;97004.84;2077235;28;20208;-57
2023/05/19 08:22:12;;;;;;;13.55;3.53;;;;;;;13.68;63.21;97004.63;2073978;28;20648;-57
2023/05/19 08:23:13;;;;;;;13.85;3.97;;;;;;;13.84;63.61;96997.66;2072420;28;20202;-57
2023/05/19 08:24:15;;;;;;;12.02;3.40;;;;;;;13.81;62.69;97003.03;2072012;28;20256;-57
2023/05/19 08:25:18;;;;;;;11.25;3.47;;;;;;;14.00;62.99;97002.09;2074082;28;20205;-57
2023/05/19 08:26:20;;;;;;;15.88;5.28;;;;;;;14.14;62.39;97002.19;2072703;28;20328;-58
2023/05/19 08:27:21;;;;;;;13.02;2.88;;;;;;;14.14;62.74;97002.19;2070256;28;20221;-58
2023/05/19 08:28:23;;;;;;;14.57;3.97;;;;;;;14.00;62.73;97002.09;2073113;28;20221;-57
2023/05/19 08:29:25;;;;;;;21.63;4.22;;;;;;;14.08;62.97;97004.31;2076969;28;20218;-57
2023/05/19 08:30:26;;;;;;;11.27;4.20;;;;;;;13.98;62.77;96998.69;2073798;28;20693;-57
2023/05/19 08:31:28;;;;;;;19.58;4.05;;;;;;;13.99;62.20;97001.25;2073859;28;20224;-58
2023/05/19 08:32:30;;;;;;;10.18;3.20;;;;;;;13.75;62.52;97003.38;2072146;28;20213;-57
2023/05/19 08:33:31;;;;;;;10.07;2.83;;;;;;;13.77;62.41;96995.44;2076105;28;20224;-57
2023/05/19 08:34:33;;;;;;;12.32;3.97;;;;;;;13.75;62.58;97000.75;2076299;28;20241;-58
2023/05/19 08:35:34;;;;;;;7.20;3.10;;;;;;;13.62;62.55;96999.69;2070706;28;20257;-57
2023/05/19 08:36:36;;;;;;;13.80;4.45;;;;;;;13.55;63.12;96997.38;2074172;28;20603;-57
2023/05/19 08:37:37;;;;;;;8.82;3.47;;;;;;;13.66;63.02;97001.22;2074776;28;20927;-57
2023/05/19 08:38:39;;;;;;;14.82;3.40;;;;;;;13.55;63.47;96997.38;2073674;28;20323;-57
2023/05/19 08:39:40;;;;;;;18.27;3.58;;;;;;;13.64;63.19;96985.56;2074900;28;20205;-57
2023/05/19 08:40:45;;;;;;;9.13;2.90;;;;;;;13.68;63.20;96978.38;2073014;28;20706;-57
2023/05/19 08:41:46;;;;;;;8.63;3.50;;;;;;;13.83;62.51;96998.56;2074295;28;20255;-57
2023/05/19 08:42:48;;;;;;;14.68;3.97;;;;;;;13.93;62.22;97003.31;2070471;28;20216;-58
2023/05/19 08:43:49;;;;;;;9.82;3.45;;;;;;;13.90;61.78;96998.25;2075798;28;20571;-58
2023/05/19 08:44:51;;;;;;;7.95;2.70;;;;;;;13.88;62.96;96990.47;2073123;28;20202;-57
2023/05/19 08:45:54;;;;;;;24.50;3.10;;;;;;;13.91;62.39;97003.41;2070918;28;20194;-57
2023/05/19 08:47:01;;;;;;;10.32;3.13;;;;;;;13.87;62.65;96983.50;2072900;28;20193;-57
2023/05/19 08:48:03;;;;;;;10.40;3.60;;;;;;;13.52;61.57;96997.53;2070832;28;20205;-57
2023/05/19 08:49:11;;;;;;;13.95;2.85;;;;;;;13.64;62.73;96998.69;2074529;28;20201;-57
2023/05/19 08:50:23;;;;;;;9.52;3.30;;;;;;;13.87;62.29;97002.72;2081348;28;20209;-58
2023/05/19 08:51:47;;;;;;;15.02;3.85;;;;;;;14.18;61.46;97001.13;2076725;28;20236;-58
2023/05/19 08:52:57;;;;;;;9.95;2.80;;;;;;;14.24;61.72;96994.69;2072389;28;20197;-59
2023/05/19 08:54:08;;;;;;;10.68;3.58;;;;;;;13.95;61.71;96991.81;2071958;28;20230;-59
2023/05/19 08:55:28;;;;;;;10.77;3.83;;;;;;;14.18;61.30;96989.75;2070101;28;20225;-59
2023/05/19 08:56:30;;;;;;;16.23;3.03;;;;;;;14.21;61.87;96990.44;2070475;28;20190;-58
2023/05/19 08:57:32;;;;;;;13.30;3.20;;;;;;;14.16;61.96;96992.47;2073126;28;20288;-59
2023/05/19 08:58:34;;;;;;;15.57;3.15;;;;;;;14.43;61.81;96994.53;2075004;28;20228;-59
2023/05/19 08:59:36;;;;;;;7.75;2.47;;;;;;;14.42;61.55;96992.81;2074787;28;20762;-58
2023/05/19 09:00:38;;;;;;;11.40;3.40;;;;;;;14.53;60.61;96987.00;2073462;28;20289;-58
2023/05/19 09:01:47;;;;;;;11.43;3.53;;;;;;;14.55;61.01;96998.28;2075454;28;20193;-58
2023/05/19 09:02:49;;;;;;;12.65;3.20;;;;;;;14.62;60.96;96994.34;2074566;28;20200;-58
2023/05/19 09:04:07;;;;;;;13.70;3.50;;;;;;;14.69;60.70;96998.38;2074225;28;20217;-59
2023/05/19 09:05:09;;;;;;;10.95;3.45;;;;;;;13.82;62.68;96996.88;2074520;28;20829;-58
2023/05/19 09:06:13;;;;;;;8.95;3.42;;;;;;;13.64;61.24;96984.72;2070526;28;20233;-58
2023/05/19 09:07:15;;;;;;;8.70;3.15;;;;;;;13.90;61.37;96993.00;2073150;28;20303;-58
2023/05/19 09:08:17;;;;;;;10.80;3.85;;;;;;;14.08;61.06;96983.28;2074222;28;20330;-58
2023/05/19 09:09:19;;;;;;;20.88;3.85;;;;;;;14.18;60.90;96980.09;2072677;28;20353;-59
2023/05/19 09:10:20;;;;;;;7.03;2.83;;;;;;;14.01;61.23;96990.66;2075916;28;20249;-59
2023/05/19 09:11:22;;;;;;;8.77;2.90;;;;;;;14.17;60.24;96988.91;2074487;28;20291;-58
2023/05/19 09:12:24;;;;;;;11.93;3.95;;;;;;;14.20;59.68;96988.72;2074063;28;20563;-58
2023/05/19 09:13:26;;;;;;;12.35;3.20;;;;;;;14.34;59.35;96987.16;2073646;28;20225;-58
2023/05/19 09:14:28;;;;;;;7.97;3.33;;;;;;;14.58;59.16;96984.94;2068502;28;20585;-59
2023/05/19 09:15:31;;;;;;;11.75;3.45;;;;;;;14.66;59.20;96987.19;2065374;28;20229;-58
2023/05/19 09:16:33;;;;;;;11.48;3.50;;;;;;;14.64;58.67;96986.38;2070762;28;20197;-58
2023/05/19 09:17:35;;;;;;;21.65;3.53;;;;;;;13.83;59.35;96985.44;2069605;28;20197;-59
2023/05/19 09:18:38;;;;;;;17.65;3.03;;;;;;;13.81;60.01;96986.44;2068268;28;20221;-59
2023/05/19 09:19:49;;;;;;;7.88;3.30;;;;;;;13.89;60.17;96992.16;2076504;28;20210;-58
2023/05/19 09:20:58;;;;;;;11.80;3.45;;;;;;;13.75;60.38;96990.25;2072747;28;20288;-58
2023/05/19 09:22:03;;;;;;;18.42;3.28;;;;;;;13.57;60.24;96992.03;2075216;28;20365;-58
2023/05/19 09:23:05;;;;;;;11.15;2.60;;;;;;;13.52;60.77;96984.41;2070336;28;20201;-58
2023/05/19 09:24:08;;;;;;;9.90;3.80;;;;;;;13.91;61.08;96982.41;2072986;28;20792;-58
2023/05/19 09:25:22;;;;;;;11.05;3.00;;;;;;;14.29;61.55;96986.56;2070655;28;20924;-59
2023/05/19 09:26:23;;;;;;;16.45;2.97;;;;;;;14.36;61.13;96977.41;2069519;28;20206;-59
2023/05/19 09:27:25;;;;;;;13.32;2.97;;;;;;;14.30;59.68;96989.09;2068523;28;20740;-58
2023/05/19 09:28:29;;;;;;;8.02;2.63;;;;;;;14.32;60.39;96989.88;2068299;28;20229;-59
2023/05/19 09:29:30;;;;;;;16.40;3.53;;;;;;;14.47;60.21;96980.28;2069239;28;20198;-58
2023/05/19 09:30:32;;;;;;;13.35;3.78;;;;;;;14.47;60.41;96982.06;2072716;28;20200;-58
2023/05/19 09:31:33;;;;;;;7.40;3.05;;;;;;;14.04;60.88;96986.09;2073202;28;20715;-58
2023/05/19 09:32:35;;;;;;;10.68;3.05;;;;;;;14.30;60.54;96983.84;2073413;28;20204;-59
2023/05/19 09:33:38;;;;;;;16.42;3.83;;;;;;;14.56;59.82;96985.97;2069738;28;20244;-59
2023/05/19 09:34:43;;;;;;;9.88;3.30;;;;;;;14.58;59.79;96984.13;2067921;28;20194;-59
2023/05/19 09:35:47;;;;;;;10.38;2.75;;;;;;;14.72;59.85;96975.50;2071020;28;20284;-58
2023/05/19 09:36:50;;;;;;;12.02;2.97;;;;;;;14.68;59.54;96975.66;2071449;28;20284;-59
2023/05/19 09:37:52;;;;;;;10.30;3.03;;;;;;;14.52;59.82;96980.91;2068182;28;20288;-58
2023/05/19 09:38:53;;;;;;;17.63;4.15;;;;;;;14.28;60.08;96969.09;2075569;28;20309;-59
2023/05/19 09:39:55;;;;;;;12.35;3.08;;;;;;;14.36;60.57;96980.88;2075979;28;21025;-58
2023/05/19 09:40:58;;;;;;;16.38;4.07;;;;;;;14.62;59.47;96981.22;2073591;28;20201;-59
2023/05/19 09:42:03;;;;;;;15.48;3.20;;;;;;;14.58;59.67;96974.44;2073623;28;20751;-58
2023/05/19 09:43:07;;;;;;;10.95;3.25;;;;;;;14.73;59.93;96974.53;2070346;28;20694;-58
2023/05/19 09:44:29;;;;;;;13.60;3.25;;;;;;;14.76;59.63;96977.00;2068795;28;20341;-57
2023/05/19 09:45:30;;;;;;;14.32;3.42;;;;;;;14.73;59.59;96977.16;2068350;28;20201;-57
2023/05/19 09:46:34;;;;;;;11.23;3.50;;;;;;;14.61;59.64;96974.25;2070988;28;20201;-58
2023/05/19 09:47:40;;;;;;;8.20;2.80;;;;;;;14.69;59.07;96979.97;2073618;28;20222;-58
2023/05/19 09:48:42;;;;;;;9.48;3.80;;;;;;;14.87;58.64;96977.25;2072358;28;20688;-57
2023/05/19 09:49:47;;;;;;;9.30;3.33;;;;;;;14.78;59.04;96981.25;2076650;28;20845;-58
2023/05/19 09:50:50;;;;;;;7.25;3.47;;;;;;;14.98;58.93;96982.75;2073014;28;20285;-58
2023/05/19 09:51:56;;;;;;;10.13;3.67;;;;;;;14.90;58.21;96973.59;2073673;28;20197;-58
2023/05/19 09:52:58;;;;;;;9.63;2.95;;;;;;;14.78;58.71;96983.88;2073604;28;20292;-57
2023/05/19 09:54:00;;;;;;;12.88;3.58;;;;;;;14.82;58.77;96982.75;2074561;28;20299;-58
2023/05/19 09:55:05;;;;;;;12.25;3.35;;;;;;;14.72;59.52;96978.97;2071482;28;20219;-57
2023/05/19 09:56:07;;;;;;;13.43;3.00;;;;;;;14.82;60.00;96980.13;2072077;28;20705;-57
2023/05/19 09:57:09;;;;;;;10.20;2.83;;;;;;;14.83;59.30;96976.56;2070142;28;20281;-57
2023/05/19 09:58:15;;;;;;;8.45;2.80;;;;;;;14.82;59.45;96984.56;2071569;28;20700;-58
2023/05/19 09:59:18;;;;;;;8.35;2.95;;;;;;;14.46;58.95;96975.13;2071791;28;20562;-58
2023/05/19 10:00:21;;;;;;;11.38;3.08;;;;;;;14.37;60.04;96977.34;2071225;28;20315;-57
2023/05/19 10:01:23;;;;;;;10.23;3.08;;;;;;;14.36;59.41;96977.41;2070249;28;20210;-58
2023/05/19 10:02:26;;;;;;;17.98;4.10;;;;;;;14.42;60.03;96973.59;2075528;28;20205;-57
2023/05/19 10:03:29;;;;;;;15.50;3.30;;;;;;;14.49;59.70;96975.78;2071697;28;20268;-57
2023/05/19 10:04:31;;;;;;;12.18;2.50;;;;;;;14.44;59.12;96974.38;2072109;28;20209;-57
2023/05/19 10:05:33;;;;;;;15.55;3.28;;;;;;;14.42;59.14;96973.59;2071029;28;20197;-58
2023/05/19 10:06:35;;;;;;;10.80;3.25;;;;;;;14.59;59.09;96977.91;2071877;28;20590;-57
2023/05/19 10:07:39;;;;;;;15.40;3.10;;;;;;;14.06;59.35;96982.56;2074047;28;20573;-57
2023/05/19 10:08:41;;;;;;;5.80;2.70;;;;;;;13.96;59.72;96979.56;2073142;28;20663;-57
2023/05/19 10:09:44;;;;;;;10.40;3.13;;;;;;;14.23;59.86;96979.00;2072503;28;20216;-58
2023/05/19 10:10:47;;;;;;;10.82;3.38;;;;;;;14.35;59.49;96978.34;2073272;28;20202;-58
2023/05/19 10:11:51;;;;;;;8.70;3.22;;;;;;;14.58;58.66;96978.88;2075811;28;20201;-57
2023/05/19 10:12:54;;;;;;;10.95;2.90;;;;;;;14.68;58.32;96972.19;2072100;28;20258;-57
2023/05/19 10:13:55;;;;;;;9.30;2.97;;;;;;;14.68;57.91;96980.06;2072682;28;20681;-57
2023/05/19 10:14:58;;;;;;;11.10;2.92;;;;;;;14.57;57.93;96971.91;2073206;28;20201;-57
2023/05/19 10:15:59;;;;;;;12.93;3.60;;;;;;;14.76;57.40;96977.00;2069235;28;20201;-58
2023/05/19 10:17:02;;;;;;;13.02;3.60;;;;;;;14.40;58.70;96965.81;2069020;28;20255;-59
2023/05/19 10:18:07;;;;;;;11.38;3.60;;;;;;;14.63;58.62;96966.31;2067001;28;20819;-58
2023/05/19 10:19:20;;;;;;;9.60;3.22;;;;;;;14.69;59.28;96960.75;2073141;28;20206;-59
2023/05/19 10:20:22;;;;;;;8.95;3.00;;;;;;;14.83;58.83;96959.94;2071032;28;20202;-57
2023/05/19 10:21:23;;;;;;;9.18;3.53;;;;;;;14.96;58.35;96968.00;2070558;28;20256;-58
2023/05/19 10:22:25;;;;;;;7.32;2.80;;;;;;;15.13;58.17;96967.84;2075424;28;20240;-57
2023/05/19 10:23:26;;;;;;;10.85;2.40;;;;;;;15.06;57.60;96965.66;2075029;28;20295;-58
2023/05/19 10:24:28;;;;;;;12.15;3.92;;;;;;;15.24;58.41;96971.66;2077275;28;20291;-58
2023/05/19 10:25:32;;;;;;;10.60;2.90;;;;;;;15.27;57.84;96968.84;2070185;28;20201;-58
2023/05/19 10:26:34;;;;;;;6.82;2.83;;;;;;;15.32;57.61;96972.06;2073885;28;20197;-57
2023/05/19 10:27:45;;;;;;;6.55;2.83;;;;;;;15.33;57.20;96977.22;2072696;28;20262;-57
2023/05/19 10:28:47;;;;;;;14.05;3.35;;;;;;;15.42;57.65;96969.72;2072561;28;20891;-58
2023/05/19 10:29:50;;;;;;;21.70;3.92;;;;;;;15.48;58.01;96970.22;2070722;28;20228;-57
2023/05/19 10:30:55;;;;;;;9.10;3.38;;;;;;;15.62;56.69;96971.19;2072192;28;20197;-58
2023/05/19 10:32:10;;;;;;;8.98;3.13;;;;;;;15.62;56.69;96969.38;2073046;28;20198;-57
2023/05/19 10:33:16;;;;;;;11.75;3.50;;;;;;;15.57;56.59;96966.19;2073467;28;20200;-57
2023/05/19 10:34:17;;;;;;;10.07;3.20;;;;;;;15.65;56.77;96974.44;2073720;28;20201;-57
2023/05/19 10:35:41;;;;;;;14.05;3.88;;;;;;;15.60;57.23;96967.78;2072229;28;20208;-57
2023/05/19 10:36:50;;;;;;;8.23;2.65;;;;;;;15.65;57.34;96968.34;2073064;28;20189;-57
2023/05/19 10:38:11;;;;;;;14.88;3.38;;;;;;;15.40;57.73;96964.56;2069929;28;20231;-57
2023/05/19 10:39:20;;;;;;;8.90;2.65;;;;;;;15.18;57.24;96972.84;2071914;28;20237;-57
2023/05/19 10:40:28;;;;;;;10.55;3.00;;;;;;;15.29;57.35;96969.63;2069030;28;20320;-57
2023/05/19 10:41:49;;;;;;;9.88;3.13;;;;;;;15.55;57.48;96978.56;2070222;28;20252;-57
2023/05/19 10:43:24;;;;;;;7.38;3.28;;;;;;;15.59;56.58;96964.31;2072098;28;20271;-58
2023/05/19 10:44:41;;;;;;;9.88;3.08;;;;;;;15.66;55.71;96970.06;2070209;28;20222;-58
2023/05/19 10:45:48;;;;;;;7.15;2.38;;;;;;;15.77;55.89;96951.81;2071745;28;20291;-57
2023/05/19 10:46:49;;;;;;;8.35;2.60;;;;;;;15.83;55.96;96958.53;2073157;28;20225;-57
2023/05/19 10:47:51;;;;;;;10.48;3.50;;;;;;;15.85;55.28;96947.91;2074384;28;20740;-58
2023/05/19 10:48:53;;;;;;;11.52;2.45;;;;;;;16.00;55.77;96965.41;2071918;28;20243;-57
2023/05/19 10:49:54;;;;;;;12.85;2.80;;;;;;;16.05;55.50;96962.47;2068819;28;20199;-58
2023/05/19 10:50:56;;;;;;;9.85;3.10;;;;;;;16.06;55.54;96962.41;2069465;28;20202;-57
2023/05/19 10:51:58;;;;;;;11.38;3.00;;;;;;;15.90;56.22;96954.59;2073579;28;20202;-57
2023/05/19 10:53:01;;;;;;;11.18;3.80;;;;;;;15.86;55.48;96970.66;2071799;28;20226;-58
2023/05/19 10:54:12;;;;;;;14.38;3.08;;;;;;;15.70;55.10;96965.47;2069174;28;20345;-58
2023/05/19 10:55:16;;;;;;;12.73;3.03;;;;;;;15.76;55.73;96968.56;2068341;28;20204;-58
2023/05/19 10:56:47;;;;;;;9.25;3.60;;;;;;;15.85;56.41;96966.34;2069576;28;20612;-57
2023/05/19 10:57:57;;;;;;;10.18;3.50;;;;;;;15.67;57.15;96967.31;2064062;28;20198;-58
2023/05/19 10:59:00;;;;;;;7.00;2.40;;;;;;;15.73;57.24;96967.88;2076467;28;20213;-58
2023/05/19 11:00:10;;;;;;;11.98;2.53;;;;;;;15.80;56.93;96964.78;2075211;28;20268;-57
2023/05/19 11:01:13;;;;;;;14.07;3.10;;;;;;;15.75;57.21;96969.50;2072868;28;20566;-58
2023/05/19 11:02:41;;;;;;;11.63;2.70;;;;;;;15.66;57.17;96972.69;2073292;28;20197;-57
2023/05/19 11:03:55;;;;;;;8.02;2.33;;;;;;;15.61;56.03;96974.75;2070174;28;20359;-58
2023/05/19 11:05:17;;;;;;;7.93;2.90;;;;;;;15.43;56.52;96979.31;2070360;28;20201;-58
2023/05/19 11:06:25;;;;;;;7.20;2.80;;;;;;;15.35;56.70;96961.38;2069403;28;20242;-57
2023/05/19 11:07:28;;;;;;;10.13;2.75;;;;;;;15.72;56.81;96976.72;2070411;28;20264;-58
2023/05/19 11:08:32;;;;;;;10.77;2.33;;;;;;;15.74;56.74;96964.31;2067997;28;20313;-57
2023/05/19 11:09:39;;;;;;;6.28;2.65;;;;;;;15.74;56.23;96975.69;2072128;28;20193;-57
2023/05/19 11:10:44;;;;;;;8.50;2.67;;;;;;;15.35;56.60;96969.25;2071478;28;20304;-58
2023/05/19 11:11:52;;;;;;;7.35;2.38;;;;;;;15.48;57.05;96969.38;2074228;28;20675;-58
2023/05/19 11:12:56;;;;;;;8.80;2.88;;;;;;;15.50;56.69;96976.25;2073314;28;20250;-57
2023/05/19 11:13:59;;;;;;;9.95;2.72;;;;;;;15.69;57.24;96977.75;2069064;28;20221;-58
2023/05/19 11:15:01;;;;;;;10.80;3.08;;;;;;;15.35;57.42;96977.16;2068977;28;20193;-58
2023/05/19 11:16:07;;;;;;;6.00;2.10;;;;;;;15.37;57.51;96966.53;2072263;28;20899;-57
2023/05/19 11:17:14;;;;;;;5.95;2.50;;;;;;;15.45;56.84;96972.16;2069669;28;20210;-58
2023/05/19 11:18:15;;;;;;;9.43;2.60;;;;;;;15.14;57.13;96971.34;2073042;28;20515;-58
2023/05/19 11:19:27;;;;;;;7.55;2.60;;;;;;;15.24;57.18;96971.66;2072764;28;20205;-57
2023/05/19 11:20:33;;;;;;;9.32;2.83;;;;;;;15.34;56.54;96967.56;2070508;28;20212;-58
2023/05/19 11:21:41;;;;;;;8.38;2.97;;;;;;;15.34;56.80;96972.81;2073455;28;20221;-57
2023/05/19 11:23:09;;;;;;;9.38;3.50;;;;;;;15.24;57.41;96972.50;2073398;28;20201;-58
2023/05/19 11:24:35;;;;;;;6.07;2.70;;;;;;;15.34;56.96;96971.03;2070011;28;20237;-58
2023/05/19 11:25:47;;;;;;;7.47;3.15;;;;;;;14.88;57.82;96964.94;2073386;28;20255;-58
2023/05/19 11:26:49;;;;;;;10.30;3.33;;;;;;;15.03;58.14;96969.31;2073065;28;20205;-57
2023/05/19 11:27:51;;;;;;;8.05;2.70;;;;;;;14.83;58.63;96965.19;2067979;28;20206;-58
2023/05/19 11:28:53;;;;;;;7.70;3.10;;;;;;;14.94;59.24;96968.06;2070514;28;20230;-58
2023/05/19 11:29:56;;;;;;;7.65;2.70;;;;;;;14.85;58.17;96958.94;2072959;28;20861;-58
2023/05/19 11:30:58;;;;;;;8.25;3.78;;;;;;;14.76;58.32;96963.88;2073249;28;20348;-57